Time;durP1;ratioP1;P1;durP2;ratioP2;P2;SDS_P1;SDS_P2;PMS_P1;PMS_P2;Temp;Humidity;BMP_temperature;BMP_pressure;BME280_temperature;BME280_humidity;BME280_pressure;Samples;Min_cycle;Max_cycle;Signal;HPM_P1;HPM_P2
2022/04/04 00:01:11;;;;;;;8.00;4.60;;;1.50;70.50;;;;;;4967731;28;20133;-63
2022/04/04 00:03:36;;;;;;;7.20;4.65;;;1.50;70.30;;;;;;4955751;28;20566;-64
2022/04/04 00:06:02;;;;;;;7.72;4.85;;;1.50;71.00;;;;;;4969983;28;20090;-64
2022/04/04 00:08:28;;;;;;;6.70;4.45;;;1.50;70.30;;;;;;4978341;28;20498;-64
2022/04/04 00:10:53;;;;;;;7.82;5.20;;;1.50;70.50;;;;;;4958034;28;20070;-64
2022/04/04 00:13:19;;;;;;;10.27;5.00;;;1.40;70.50;;;;;;4960197;28;20077;-65
2022/04/04 00:15:45;;;;;;;6.80;4.82;;;1.40;70.60;;;;;;4955175;28;20693;-64
2022/04/04 00:18:11;;;;;;;7.85;5.00;;;1.40;70.60;;;;;;4972699;28;20430;-66
2022/04/04 00:20:39;;;;;;;7.72;4.82;;;1.40;70.70;;;;;;4973282;28;20041;-64
2022/04/04 00:23:05;;;;;;;7.40;4.85;;;1.40;70.50;;;;;;4957566;28;20042;-64
2022/04/04 00:25:31;;;;;;;8.20;4.78;;;1.40;70.40;;;;;;4964758;28;20046;-66
2022/04/04 00:27:56;;;;;;;6.43;4.47;;;1.30;70.50;;;;;;4976409;28;20410;-64
2022/04/04 00:30:22;;;;;;;6.88;4.50;;;1.30;70.50;;;;;;4958451;28;20047;-63
2022/04/04 00:32:48;;;;;;;5.80;4.28;;;1.20;70.50;;;;;;4959449;28;20493;-63
2022/04/04 00:35:14;;;;;;;5.53;4.15;;;1.10;70.50;;;;;;4974974;28;20249;-64
2022/04/04 00:37:40;;;;;;;5.45;4.15;;;1.20;70.70;;;;;;4965020;28;20040;-63
2022/04/04 00:40:07;;;;;;;7.97;4.50;;;1.10;71.00;;;;;;4971700;28;20092;-64
2022/04/04 00:42:33;;;;;;;6.78;4.43;;;1.10;71.20;;;;;;4957353;28;20087;-65
2022/04/04 00:45:00;;;;;;;6.18;4.25;;;1.10;71.20;;;;;;4960334;28;20505;-64
2022/04/04 00:47:25;;;;;;;6.53;4.45;;;1.10;71.20;;;;;;4977488;28;20038;-66
2022/04/04 00:49:51;;;;;;;7.70;4.25;;;1.10;71.10;;;;;;4968841;28;20415;-63
2022/04/04 00:52:17;;;;;;;8.23;4.75;;;1.10;71.10;;;;;;4969688;28;20038;-64
2022/04/04 00:54:45;;;;;;;6.22;4.43;;;1.10;71.00;;;;;;4955390;28;20031;-63
2022/04/04 00:57:10;;;;;;;7.68;4.22;;;1.20;70.80;;;;;;4963113;28;20441;-65
2022/04/04 00:59:37;;;;;;;7.85;4.63;;;1.20;70.60;;;;;;4964423;28;20492;-62
2022/04/04 01:02:04;;;;;;;6.05;4.22;;;1.10;70.50;;;;;;4956446;28;20036;-63
2022/04/04 01:04:29;;;;;;;6.07;4.10;;;1.10;70.50;;;;;;4970973;28;20058;-63
2022/04/04 01:06:55;;;;;;;5.43;4.10;;;1.10;70.50;;;;;;4972064;28;20035;-65
2022/04/04 01:09:20;;;;;;;5.55;3.90;;;1.00;70.50;;;;;;4957459;28;20433;-64
2022/04/04 01:12:12;;;;;;;6.18;3.90;;;1.00;70.50;;;;;;4966748;28;20378;-66
2022/04/04 01:14:48;;;;;;;5.43;3.60;;;0.90;70.50;;;;;;4972492;28;20496;-62
2022/04/04 01:17:18;;;;;;;6.55;4.05;;;0.90;70.60;;;;;;4953250;28;20035;-62
2022/04/04 01:19:44;;;;;;;5.72;3.92;;;0.90;70.70;;;;;;4964458;28;20546;-62
2022/04/04 01:22:12;;;;;;;5.45;3.72;;;0.90;70.80;;;;;;4975570;28;20227;-65
2022/04/04 01:24:38;;;;;;;5.65;3.75;;;0.90;70.60;;;;;;4955642;28;20173;-67
2022/04/04 01:27:06;;;;;;;5.45;4.05;;;0.90;70.70;;;;;;4962587;28;20049;-62
2022/04/04 01:29:31;;;;;;;7.50;3.72;;;0.90;70.80;;;;;;4976198;28;20030;-66
2022/04/04 01:31:58;;;;;;;5.32;3.95;;;0.90;70.60;;;;;;4963015;28;20090;-64
2022/04/04 01:34:24;;;;;;;5.35;3.80;;;0.80;70.30;;;;;;4955806;28;20039;-67
2022/04/04 01:36:50;;;;;;;5.57;4.10;;;0.80;70.30;;;;;;4987886;28;20520;-62
2022/04/04 01:39:16;;;;;;;6.82;4.05;;;0.70;70.30;;;;;;4967764;28;20438;-61
2022/04/04 01:41:43;;;;;;;5.03;3.85;;;0.60;70.40;;;;;;4956686;28;20097;-63
2022/04/04 01:44:09;;;;;;;7.38;4.22;;;0.60;70.80;;;;;;4970610;28;20066;-63
2022/04/04 01:46:34;;;;;;;5.13;3.78;;;0.50;70.90;;;;;;4971930;28;20490;-65
2022/04/04 01:49:02;;;;;;;5.65;4.10;;;0.50;70.80;;;;;;4954687;28;20027;-62
2022/04/04 01:51:29;;;;;;;6.13;4.43;;;0.50;71.00;;;;;;4963809;28;20784;-63
2022/04/04 01:53:55;;;;;;;5.43;3.90;;;0.50;71.20;;;;;;4976756;28;21917;-63
2022/04/04 01:56:21;;;;;;;6.07;3.97;;;0.40;71.00;;;;;;4964369;28;20039;-63
2022/04/04 01:58:47;;;;;;;7.75;4.10;;;0.40;71.00;;;;;;4976750;28;20464;-62
2022/04/04 02:01:18;;;;;;;6.93;4.05;;;0.40;70.90;;;;;;4971352;28;20039;-61
2022/04/04 02:03:48;;;;;;;5.15;3.58;;;0.40;71.80;;;;;;4970250;28;20121;-65
2022/04/04 02:06:14;;;;;;;6.82;4.47;;;0.40;71.00;;;;;;4978936;28;20034;-64
2022/04/04 02:08:42;;;;;;;5.50;4.13;;;0.40;71.00;;;;;;4980291;28;20310;-63
2022/04/04 02:11:08;;;;;;;5.72;4.05;;;0.40;70.90;;;;;;4971773;28;20126;-63
2022/04/04 02:13:34;;;;;;;6.05;4.10;;;0.40;70.80;;;;;;4959570;28;20043;-65
2022/04/04 02:16:01;;;;;;;5.65;4.03;;;0.40;70.80;;;;;;4971888;28;20513;-64
2022/04/04 02:18:28;;;;;;;6.00;4.22;;;0.30;70.80;;;;;;4983877;28;20049;-64
2022/04/04 02:20:54;;;;;;;8.13;4.47;;;0.30;71.70;;;;;;4957538;28;20538;-62
2022/04/04 02:23:20;;;;;;;6.72;3.97;;;0.30;70.80;;;;;;4966498;28;20536;-63
2022/04/04 02:25:50;;;;;;;6.10;3.85;;;0.30;70.70;;;;;;4977593;28;20042;-65
2022/04/04 02:28:16;;;;;;;6.65;4.05;;;0.20;70.70;;;;;;4963864;28;20408;-63
2022/04/04 02:30:44;;;;;;;6.53;4.32;;;0.20;70.80;;;;;;4959875;28;20042;-65
2022/04/04 02:33:10;;;;;;;4.72;3.88;;;0.10;70.80;;;;;;4978220;28;20042;-65
2022/04/04 02:35:36;;;;;;;5.78;4.18;;;0.10;70.80;;;;;;4967195;28;20069;-65
2022/04/04 02:38:02;;;;;;;7.05;4.20;;;0.00;70.80;;;;;;4959176;28;20089;-65
2022/04/04 02:40:28;;;;;;;6.30;4.10;;;0.00;71.00;;;;;;4976253;28;20080;-63
2022/04/04 02:42:54;;;;;;;6.25;4.38;;;-0.10;71.20;;;;;;4974928;28;20047;-61
2022/04/04 02:45:20;;;;;;;5.20;3.97;;;-0.10;71.30;;;;;;4958285;28;20090;-63
2022/04/04 02:47:46;;;;;;;7.32;4.15;;;-0.10;71.30;;;;;;4967756;28;20548;-64
2022/04/04 02:50:13;;;;;;;8.00;3.95;;;-0.10;71.30;;;;;;4978352;28;20093;-64
2022/04/04 02:52:39;;;;;;;6.25;4.22;;;-0.10;71.20;;;;;;4956904;28;20407;-63
2022/04/04 02:57:51;;;;;;;10.07;4.93;;;-0.20;71.00;;;;;;4977991;28;20073;-62
2022/04/04 03:00:20;;;;;;;6.75;4.43;;;-0.20;71.10;;;;;;4963051;28;20054;-65
2022/04/04 03:02:46;;;;;;;6.30;4.43;;;-0.30;71.10;;;;;;4973035;28;20062;-63
2022/04/04 03:05:12;;;;;;;6.38;4.25;;;-0.40;71.20;;;;;;4956750;28;20063;-63
2022/04/04 03:07:39;;;;;;;7.60;4.25;;;-0.50;71.20;;;;;;4968368;28;20650;-63
2022/04/04 03:10:05;;;;;;;7.90;4.30;;;-0.50;71.30;;;;;;4978114;28;20039;-62
2022/04/04 03:12:31;;;;;;;6.43;4.28;;;-0.60;71.40;;;;;;4961780;28;20039;-62
2022/04/04 03:14:57;;;;;;;6.78;4.03;;;-0.60;71.50;;;;;;4961457;28;20031;-63
2022/04/04 03:17:23;;;;;;;9.18;4.65;;;-0.60;71.50;;;;;;4979502;28;20046;-63
2022/04/04 03:19:48;;;;;;;7.10;4.70;;;-0.60;71.50;;;;;;4968182;28;20666;-62
2022/04/04 03:22:14;;;;;;;6.03;4.13;;;-0.70;71.60;;;;;;4960583;28;20616;-62
2022/04/04 03:24:40;;;;;;;7.65;4.60;;;-0.70;71.80;;;;;;4976689;28;20148;-66
2022/04/04 03:27:06;;;;;;;5.85;3.97;;;-0.70;72.00;;;;;;4973283;28;20050;-66
2022/04/04 03:29:32;;;;;;;6.45;4.10;;;-0.70;71.90;;;;;;4959209;28;20038;-63
2022/04/04 03:31:58;;;;;;;11.55;5.20;;;-0.70;71.80;;;;;;4972697;28;20113;-63
2022/04/04 03:34:25;;;;;;;6.90;4.65;;;-0.70;71.70;;;;;;4979739;28;20518;-64
2022/04/04 03:36:51;;;;;;;6.60;4.55;;;-0.70;71.50;;;;;;4955188;28;20822;-65
2022/04/04 03:39:17;;;;;;;8.05;4.93;;;-0.80;71.50;;;;;;4964959;28;20034;-61
2022/04/04 03:41:45;;;;;;;6.75;4.70;;;-0.80;71.50;;;;;;4976821;28;20046;-62
2022/04/04 03:44:11;;;;;;;9.02;5.00;;;-0.90;71.50;;;;;;4965971;28;20039;-63
2022/04/04 03:46:38;;;;;;;7.88;4.93;;;-0.90;71.60;;;;;;4958610;28;20474;-63
2022/04/04 03:49:04;;;;;;;9.75;5.40;;;-0.90;71.80;;;;;;4977659;28;20081;-64
2022/04/04 03:51:30;;;;;;;10.45;5.57;;;-0.90;71.80;;;;;;4966761;28;20035;-64
2022/04/04 03:53:56;;;;;;;11.82;5.95;;;-0.90;71.80;;;;;;4956662;28;20098;-62
2022/04/04 03:56:22;;;;;;;10.20;5.28;;;-0.90;71.70;;;;;;4970338;28;20494;-63
2022/04/04 03:58:49;;;;;;;9.25;5.53;;;-0.90;71.70;;;;;;4976157;28;20050;-63
2022/04/04 04:01:15;;;;;;;9.85;5.13;;;-1.00;71.70;;;;;;4957671;28;20061;-64
2022/04/04 04:03:40;;;;;;;8.93;5.55;;;-1.00;71.70;;;;;;4966109;28;20063;-64
2022/04/04 04:06:12;;;;;;;8.88;5.30;;;-1.00;71.90;;;;;;4977174;28;20053;-64
2022/04/04 04:08:43;;;;;;;11.10;5.95;;;-1.00;71.90;;;;;;4955365;28;20042;-63
2022/04/04 04:11:10;;;;;;;12.30;7.10;;;-1.00;71.80;;;;;;4961823;28;20518;-65
2022/04/04 04:13:37;;;;;;;16.95;9.85;;;-1.00;71.80;;;;;;4976439;28;20048;-63
2022/04/04 04:16:03;;;;;;;18.05;10.02;;;-1.00;71.70;;;;;;4961814;28;20031;-64
2022/04/04 04:18:29;;;;;;;14.27;8.13;;;-1.10;71.60;;;;;;4960921;28;20050;-62
2022/04/04 04:20:56;;;;;;;14.00;7.95;;;-1.10;71.70;;;;;;4976783;28;20049;-65
2022/04/04 04:23:22;;;;;;;13.90;7.75;;;-1.10;71.70;;;;;;4971242;28;20134;-64
2022/04/04 04:25:48;;;;;;;14.02;7.68;;;-1.20;71.90;;;;;;4956635;28;20399;-62
2022/04/04 04:28:14;;;;;;;14.38;7.55;;;-1.20;72.00;;;;;;4973882;28;20039;-64
2022/04/04 04:30:40;;;;;;;13.60;6.82;;;-1.20;72.00;;;;;;4972352;28;20046;-65
2022/04/04 04:33:07;;;;;;;13.73;6.72;;;-1.20;71.90;;;;;;4962235;28;20042;-66
2022/04/04 04:35:33;;;;;;;10.43;6.30;;;-1.20;72.00;;;;;;4975526;28;20105;-65
2022/04/04 04:37:59;;;;;;;11.80;6.93;;;-1.20;72.20;;;;;;4970970;28;20050;-63
2022/04/04 04:40:25;;;;;;;14.00;7.18;;;-1.20;72.20;;;;;;4954119;28;20027;-56
2022/04/04 04:42:52;;;;;;;11.98;6.65;;;-1.20;72.20;;;;;;4960419;28;20038;-61
2022/04/04 04:45:18;;;;;;;15.40;7.50;;;-1.30;72.20;;;;;;4976224;28;20042;-62
2022/04/04 04:47:43;;;;;;;13.43;7.30;;;-1.30;72.20;;;;;;4977878;28;20452;-64
2022/04/04 04:50:11;;;;;;;13.82;7.85;;;-1.30;72.20;;;;;;4977046;28;20027;-63
2022/04/04 04:52:36;;;;;;;17.60;9.27;;;-1.30;72.10;;;;;;4959457;28;20058;-63
2022/04/04 04:55:04;;;;;;;21.02;11.38;;;-1.30;72.10;;;;;;4973573;28;20059;-62
2022/04/04 04:57:30;;;;;;;19.67;11.30;;;-1.30;72.20;;;;;;4958189;28;20094;-63
2022/04/04 04:59:56;;;;;;;18.27;9.70;;;-1.40;72.40;;;;;;4968721;28;20050;-63
2022/04/04 05:02:22;;;;;;;13.07;8.45;;;-1.40;72.30;;;;;;4975928;28;20110;-65
2022/04/04 05:04:48;;;;;;;12.75;8.00;;;-1.40;72.40;;;;;;4956965;28;20054;-63
2022/04/04 05:07:14;;;;;;;13.98;7.93;;;-1.40;72.50;;;;;;4961671;28;20128;-61
2022/04/04 05:09:40;;;;;;;13.35;7.53;;;-1.40;72.60;;;;;;4975687;28;20033;-64
2022/04/04 05:12:06;;;;;;;13.85;7.35;;;-1.40;72.80;;;;;;4976728;28;20121;-64
2022/04/04 05:14:32;;;;;;;12.35;7.35;;;-1.40;72.80;;;;;;4974887;28;20031;-62
2022/04/04 05:16:57;;;;;;;12.23;6.82;;;-1.50;72.80;;;;;;4957263;28;20031;-64
2022/04/04 05:19:23;;;;;;;12.45;6.95;;;-1.50;72.90;;;;;;4965053;28;20497;-63
2022/04/04 05:21:49;;;;;;;13.48;7.40;;;-1.50;73.10;;;;;;4991546;28;20034;-66
2022/04/04 05:24:16;;;;;;;12.48;6.85;;;-1.50;74.00;;;;;;4961058;28;20027;-59
2022/04/04 05:26:42;;;;;;;16.35;7.63;;;-1.50;73.30;;;;;;4958529;28;20035;-62
2022/04/04 05:29:08;;;;;;;24.05;7.90;;;-1.40;73.50;;;;;;4982319;28;20093;-65
2022/04/04 05:31:35;;;;;;;19.20;8.30;;;-1.40;73.60;;;;;;4971569;28;20533;-65
2022/04/04 05:34:03;;;;;;;21.20;9.48;;;-1.40;73.40;;;;;;4963936;28;20105;-64
2022/04/04 05:36:28;;;;;;;24.55;10.25;;;-1.30;73.40;;;;;;4980795;28;20049;-63
2022/04/04 05:38:55;;;;;;;27.98;12.43;;;-1.30;73.30;;;;;;4981787;28;20039;-65
2022/04/04 05:41:21;;;;;;;24.73;11.43;;;-1.30;73.30;;;;;;4983988;28;20042;-62
2022/04/04 05:43:47;;;;;;;27.77;12.75;;;-1.30;73.40;;;;;;4981302;28;20034;-62
2022/04/04 05:46:15;;;;;;;22.65;11.00;;;-1.20;73.40;;;;;;4967700;28;20034;-61
2022/04/04 05:48:41;;;;;;;17.48;9.20;;;-1.20;73.40;;;;;;4980479;28;20399;-62
2022/04/04 05:51:08;;;;;;;20.52;8.85;;;-1.20;73.40;;;;;;4969170;28;20112;-62
2022/04/04 05:53:34;;;;;;;14.40;8.35;;;-1.20;73.40;;;;;;4975778;28;20517;-64
2022/04/04 05:56:00;;;;;;;17.48;7.63;;;-1.10;73.50;;;;;;4965918;28;20049;-65
2022/04/04 05:58:26;;;;;;;12.50;7.55;;;-1.10;73.60;;;;;;4962165;28;20034;-63
2022/04/04 06:00:51;;;;;;;17.73;8.63;;;-1.10;73.50;;;;;;4980047;28;20117;-65
2022/04/04 06:03:18;;;;;;;17.58;8.25;;;-1.00;73.60;;;;;;4984892;28;20149;-59
2022/04/04 06:05:46;;;;;;;13.00;7.75;;;-1.00;73.60;;;;;;4976697;28;20062;-64
2022/04/04 06:08:12;;;;;;;12.25;7.22;;;-1.00;73.60;;;;;;4968534;28;20352;-59
2022/04/04 06:10:37;;;;;;;16.75;7.38;;;-0.90;73.80;;;;;;4965002;28;20506;-64
2022/04/04 06:13:03;;;;;;;14.90;7.68;;;-0.90;73.90;;;;;;4983590;28;20038;-62
2022/04/04 06:15:29;;;;;;;16.05;8.10;;;-0.90;74.00;;;;;;4985010;28;20039;-63
2022/04/04 06:17:54;;;;;;;19.30;8.18;;;-0.80;74.20;;;;;;4980401;28;20042;-63
2022/04/04 06:20:20;;;;;;;16.65;8.25;;;-0.70;74.20;;;;;;4981969;28;20046;-64
2022/04/04 06:22:46;;;;;;;17.27;7.57;;;-0.70;74.20;;;;;;4982056;28;20034;-63
2022/04/04 06:25:15;;;;;;;14.02;7.90;;;-0.60;74.10;;;;;;4983451;28;20621;-62
2022/04/04 06:27:41;;;;;;;11.85;7.13;;;-0.50;74.30;;;;;;4983572;28;20038;-62
2022/04/04 06:30:08;;;;;;;15.40;8.10;;;-0.50;74.40;;;;;;4981797;28;20141;-64
2022/04/04 06:32:34;;;;;;;16.52;8.13;;;-0.40;74.50;;;;;;4979134;28;20046;-61
2022/04/04 06:35:00;;;;;;;12.43;8.02;;;-0.30;74.60;;;;;;4982193;28;20456;-64
2022/04/04 06:37:25;;;;;;;12.18;7.47;;;-0.30;74.60;;;;;;4983766;28;20550;-63
2022/04/04 06:39:51;;;;;;;15.80;8.02;;;-0.20;74.80;;;;;;4978925;28;20092;-63
2022/04/04 06:42:17;;;;;;;11.30;7.70;;;-0.10;74.90;;;;;;4978410;28;20490;-63
2022/04/04 06:44:43;;;;;;;13.48;8.05;;;-0.10;74.90;;;;;;4978921;28;20040;-63
2022/04/04 06:47:12;;;;;;;15.93;8.50;;;0.00;75.90;;;;;;4977667;28;20042;-63
2022/04/04 06:49:37;;;;;;;13.77;8.80;;;0.00;75.10;;;;;;4978885;28;20057;-63
2022/04/04 06:52:04;;;;;;;12.35;8.10;;;0.10;75.10;;;;;;4977976;28;20129;-63
2022/04/04 06:54:29;;;;;;;13.02;8.27;;;0.20;75.10;;;;;;4981127;28;20552;-64
2022/04/04 06:56:55;;;;;;;14.70;8.75;;;0.20;75.00;;;;;;4977281;28;20047;-64
2022/04/04 06:59:21;;;;;;;14.90;8.38;;;0.30;75.10;;;;;;4980844;28;20038;-63
2022/04/04 07:01:47;;;;;;;14.93;8.90;;;0.40;75.00;;;;;;4977828;28;20035;-63
2022/04/04 07:04:13;;;;;;;13.48;8.40;;;0.40;75.00;;;;;;4978393;28;20072;-62
2022/04/04 07:06:39;;;;;;;15.20;8.20;;;0.50;75.10;;;;;;4978086;28;20035;-63
2022/04/04 07:09:05;;;;;;;12.32;8.23;;;0.50;75.20;;;;;;4978221;28;20117;-63
2022/04/04 07:11:31;;;;;;;13.73;7.88;;;0.60;75.20;;;;;;4977276;28;20077;-63
2022/04/04 07:13:57;;;;;;;17.98;8.57;;;0.70;75.10;;;;;;4977494;28;20129;-62
2022/04/04 07:16:25;;;;;;;14.35;8.88;;;0.80;75.20;;;;;;4979399;28;20494;-63
2022/04/04 07:18:52;;;;;;;12.63;7.80;;;0.80;75.20;;;;;;4979852;28;20279;-66
2022/04/04 07:21:17;;;;;;;14.70;8.38;;;0.90;76.10;;;;;;4975277;28;20347;-64
2022/04/04 07:23:43;;;;;;;12.88;7.93;;;1.00;75.30;;;;;;4977644;28;20038;-66
2022/04/04 07:26:09;;;;;;;18.20;9.15;;;1.00;75.00;;;;;;4964321;28;20045;-64
2022/04/04 07:28:34;;;;;;;17.00;8.60;;;1.10;75.00;;;;;;4961210;28;20415;-63
2022/04/04 07:31:03;;;;;;;12.40;8.10;;;1.20;74.70;;;;;;4976910;28;20035;-64
2022/04/04 07:33:29;;;;;;;12.52;7.30;;;1.30;74.50;;;;;;4969013;28;20102;-64
2022/04/04 07:35:55;;;;;;;11.63;7.55;;;1.30;74.30;;;;;;4970291;28;20509;-64
2022/04/04 07:38:20;;;;;;;13.30;6.43;;;1.40;73.90;;;;;;4977300;28;20073;-65
2022/04/04 07:40:46;;;;;;;9.68;6.32;;;1.50;73.70;;;;;;4961155;28;20134;-63
2022/04/04 07:43:12;;;;;;;9.43;5.90;;;1.60;74.10;;;;;;4973290;28;20086;-63
2022/04/04 07:45:38;;;;;;;8.68;5.45;;;1.70;73.10;;;;;;4967434;28;20485;-63
2022/04/04 07:48:05;;;;;;;9.10;5.63;;;1.70;72.60;;;;;;4966201;28;20035;-66
2022/04/04 07:50:30;;;;;;;8.13;5.40;;;1.80;72.10;;;;;;4975772;28;20343;-63
2022/04/04 07:52:56;;;;;;;9.15;5.45;;;1.90;72.10;;;;;;4972491;28;20078;-64
2022/04/04 07:55:22;;;;;;;8.60;5.05;;;1.90;71.50;;;;;;4959633;28;20035;-64
2022/04/04 07:57:48;;;;;;;9.05;4.97;;;2.00;71.30;;;;;;4968646;28;20034;-64
2022/04/04 08:00:17;;;;;;;7.75;4.82;;;2.10;71.00;;;;;;4977430;28;20085;-63
2022/04/04 08:02:43;;;;;;;6.05;4.47;;;2.20;70.80;;;;;;4955536;28;20035;-63
2022/04/04 08:05:09;;;;;;;6.88;4.57;;;2.20;70.10;;;;;;4964703;28;20037;-62
2022/04/04 08:07:36;;;;;;;7.82;4.40;;;2.30;70.20;;;;;;4979657;28;20034;-63
2022/04/04 08:10:02;;;;;;;6.18;4.40;;;2.40;69.80;;;;;;4964681;28;20419;-63
2022/04/04 08:12:29;;;;;;;7.82;4.32;;;2.50;69.60;;;;;;4957837;28;20027;-64
2022/04/04 08:14:55;;;;;;;4.97;4.13;;;2.50;69.60;;;;;;4963512;28;20034;-60
2022/04/04 08:17:22;;;;;;;8.27;4.47;;;2.60;69.50;;;;;;4978559;28;20042;-62
2022/04/04 08:19:48;;;;;;;9.73;4.32;;;2.70;69.30;;;;;;4978117;28;20026;-63
2022/04/04 08:22:14;;;;;;;11.73;4.60;;;2.70;68.60;;;;;;4979009;28;20034;-64
2022/04/04 08:24:41;;;;;;;5.90;4.70;;;2.80;68.00;;;;;;4975541;28;20066;-62
2022/04/04 08:27:07;;;;;;;14.10;4.43;;;2.90;67.70;;;;;;4958878;28;20118;-64
2022/04/04 08:29:33;;;;;;;7.65;4.88;;;3.00;67.30;;;;;;4968780;28;20437;-63
2022/04/04 08:31:59;;;;;;;8.77;4.53;;;3.00;67.30;;;;;;4976465;28;20034;-63
2022/04/04 08:34:24;;;;;;;7.88;4.75;;;3.10;67.20;;;;;;4978611;28;20038;-63
2022/04/04 08:36:50;;;;;;;6.97;5.07;;;3.10;66.70;;;;;;4974106;28;20039;-63
2022/04/04 08:39:16;;;;;;;9.13;4.82;;;3.20;65.60;;;;;;4960642;28;20043;-64
2022/04/04 08:41:41;;;;;;;6.55;4.75;;;3.30;65.90;;;;;;4968638;28;20061;-64
2022/04/04 08:44:07;;;;;;;8.65;4.97;;;3.30;65.80;;;;;;4978562;28;20128;-64
2022/04/04 08:46:33;;;;;;;6.85;4.90;;;3.40;65.40;;;;;;4961194;28;20043;-64
2022/04/04 08:49:04;;;;;;;8.63;4.70;;;3.40;65.60;;;;;;4962727;28;20042;-66
2022/04/04 08:51:30;;;;;;;10.68;5.05;;;3.50;65.70;;;;;;4978189;28;20034;-63
2022/04/04 08:53:55;;;;;;;7.03;4.55;;;3.50;65.40;;;;;;4963832;28;20522;-63
2022/04/04 08:56:25;;;;;;;10.98;4.90;;;3.60;65.10;;;;;;4958346;28;20043;-64
2022/04/04 08:58:52;;;;;;;7.85;4.50;;;3.70;64.70;;;;;;4976310;28;20033;-67
2022/04/04 09:01:22;;;;;;;8.75;4.80;;;3.70;65.30;;;;;;4975006;28;20062;-65
2022/04/04 09:04:11;;;;;;;8.23;4.82;;;3.70;64.60;;;;;;4975140;28;20030;-65
2022/04/04 09:07:00;;;;;;;7.47;5.38;;;3.80;64.00;;;;;;4964475;28;20041;-63
2022/04/04 09:09:49;;;;;;;7.95;4.75;;;3.90;63.80;;;;;;4966221;28;20050;-64
2022/04/04 09:12:22;;;;;;;7.30;5.18;;;3.90;63.20;;;;;;4976793;28;20034;-65
2022/04/04 09:14:51;;;;;;;10.27;5.55;;;4.00;64.40;;;;;;4957733;28;20035;-65
2022/04/04 09:17:24;;;;;;;8.75;5.32;;;4.10;64.00;;;;;;4966161;28;20580;-63
2022/04/04 09:19:50;;;;;;;7.18;4.90;;;4.10;64.70;;;;;;4978550;28;20121;-64
2022/04/04 09:22:18;;;;;;;6.97;4.68;;;4.20;64.70;;;;;;4977941;28;20030;-66
2022/04/04 09:24:48;;;;;;;7.35;4.47;;;4.30;64.20;;;;;;4976144;28;20058;-63
2022/04/04 09:27:21;;;;;;;6.80;5.35;;;4.30;63.50;;;;;;4973408;28;20406;-65
2022/04/04 09:29:48;;;;;;;10.05;5.60;;;4.40;60.70;;;;;;4969554;28;20035;-66
2022/04/04 09:32:15;;;;;;;8.68;5.30;;;4.40;61.70;;;;;;4976652;28;20113;-63
2022/04/04 09:34:57;;;;;;;11.07;6.10;;;4.40;61.80;;;;;;4958057;28;20526;-64
2022/04/04 09:37:24;;;;;;;8.93;6.28;;;4.50;60.40;;;;;;4965240;28;20074;-64
2022/04/04 09:39:51;;;;;;;10.80;6.50;;;4.50;60.10;;;;;;4976775;28;20132;-65
2022/04/04 09:42:18;;;;;;;9.63;6.05;;;4.50;60.80;;;;;;4975681;28;20033;-63
2022/04/04 09:44:57;;;;;;;9.00;5.78;;;4.50;61.80;;;;;;4978854;28;20046;-65
2022/04/04 09:47:23;;;;;;;8.07;6.05;;;4.60;61.50;;;;;;4977525;28;20054;-63
2022/04/04 09:49:49;;;;;;;7.45;5.70;;;4.60;60.00;;;;;;4975781;28;20093;-64
2022/04/04 09:52:15;;;;;;;8.23;6.07;;;4.70;60.60;;;;;;4974382;28;20038;-64
2022/04/04 09:54:43;;;;;;;7.25;5.80;;;4.70;61.60;;;;;;4974499;28;20034;-63
2022/04/04 09:57:16;;;;;;;7.65;5.60;;;4.80;61.80;;;;;;4975688;28;20390;-63
2022/04/04 09:59:42;;;;;;;7.65;5.45;;;4.80;61.80;;;;;;4976025;28;20420;-65
2022/04/04 10:02:12;;;;;;;9.05;5.75;;;4.90;62.10;;;;;;4977022;28;20033;-65
2022/04/04 10:04:41;;;;;;;8.60;6.05;;;4.90;61.50;;;;;;4975577;28;20041;-64
2022/04/04 10:07:11;;;;;;;7.80;5.47;;;5.00;62.40;;;;;;4990904;28;20029;-64
2022/04/04 10:09:37;;;;;;;8.20;5.90;;;5.10;61.20;;;;;;4977821;28;20342;-64
2022/04/04 10:12:05;;;;;;;7.03;5.40;;;5.10;61.60;;;;;;4977994;28;20030;-65
2022/04/04 10:14:34;;;;;;;11.38;7.05;;;5.20;61.40;;;;;;4980144;28;20061;-64
2022/04/04 10:17:00;;;;;;;9.05;6.65;;;5.20;61.10;;;;;;4981473;28;20039;-64
2022/04/04 10:19:27;;;;;;;9.68;6.00;;;5.30;61.80;;;;;;4981626;28;20086;-64
2022/04/04 10:21:53;;;;;;;7.95;5.60;;;5.30;61.50;;;;;;4982351;28;20159;-64
2022/04/04 10:24:20;;;;;;;8.23;5.97;;;5.40;61.50;;;;;;4981943;28;20042;-65
2022/04/04 10:26:48;;;;;;;8.85;5.82;;;5.40;61.70;;;;;;4980540;28;20125;-65
2022/04/04 10:29:20;;;;;;;9.38;5.82;;;5.50;60.40;;;;;;4974030;28;20065;-65
2022/04/04 10:31:46;;;;;;;6.68;5.68;;;5.60;60.90;;;;;;4962068;28;20058;-64
2022/04/04 10:34:17;;;;;;;10.10;6.05;;;5.60;59.90;;;;;;4975892;28;20498;-65
2022/04/04 10:37:02;;;;;;;8.88;6.32;;;5.60;59.80;;;;;;4977323;28;20129;-64
2022/04/04 10:39:36;;;;;;;9.45;6.47;;;5.70;59.50;;;;;;4982919;28;20189;-65
2022/04/04 10:42:22;;;;;;;8.13;6.55;;;5.70;59.70;;;;;;4980151;28;20311;-66
2022/04/04 10:44:49;;;;;;;7.00;6.10;;;5.70;60.40;;;;;;4976045;28;20042;-63
2022/04/04 10:47:23;;;;;;;10.70;6.15;;;5.80;60.90;;;;;;4962060;28;20038;-65
2022/04/04 10:49:49;;;;;;;10.77;6.10;;;5.80;58.60;;;;;;4972797;28;20066;-66
2022/04/04 10:52:36;;;;;;;9.43;6.18;;;5.80;58.70;;;;;;4982730;28;20043;-65
2022/04/04 10:55:28;;;;;;;8.88;6.50;;;5.80;59.40;;;;;;4966712;28;20049;-65
2022/04/04 10:58:15;;;;;;;7.63;6.28;;;5.90;58.40;;;;;;4970226;28;20035;-65
2022/04/04 11:00:58;;;;;;;9.85;5.97;;;5.90;58.90;;;;;;4977835;28;22035;-65
2022/04/04 11:03:39;;;;;;;12.80;6.50;;;5.90;59.70;;;;;;4962331;28;20578;-65
2022/04/04 11:09:12;;;;;;;10.25;6.43;;;6.00;60.10;;;;;;4978666;28;20112;-66
2022/04/04 11:11:50;;;;;;;9.60;6.43;;;6.10;59.80;;;;;;4977636;28;20030;-65
2022/04/04 11:14:46;;;;;;;8.38;6.45;;;6.20;59.90;;;;;;4978673;28;20042;-65
2022/04/04 11:17:13;;;;;;;9.63;6.43;;;6.30;58.00;;;;;;4973483;28;20129;-64
2022/04/04 11:20:04;;;;;;;11.38;6.85;;;6.40;59.30;;;;;;4962202;28;20094;-65
2022/04/04 11:22:32;;;;;;;9.93;7.00;;;6.40;59.40;;;;;;4976300;28;20045;-66
2022/04/04 11:25:03;;;;;;;12.18;6.70;;;6.50;59.80;;;;;;4975562;28;20049;-65
2022/04/04 11:27:33;;;;;;;8.40;6.63;;;6.50;60.00;;;;;;4961456;28;20078;-67
2022/04/04 11:30:05;;;;;;;8.77;6.82;;;6.60;59.30;;;;;;4970686;28;20150;-65
2022/04/04 11:32:34;;;;;;;10.70;7.00;;;6.70;59.20;;;;;;4978653;28;20080;-66
2022/04/04 11:35:22;;;;;;;9.52;7.07;;;6.70;58.60;;;;;;4958493;28;20030;-66
2022/04/04 11:37:50;;;;;;;12.65;6.88;;;6.80;57.30;;;;;;4972392;28;20037;-67
2022/04/04 11:40:18;;;;;;;12.00;7.00;;;6.70;57.90;;;;;;4980635;28;20035;-66
2022/04/04 11:42:50;;;;;;;8.90;6.25;;;6.70;58.20;;;;;;4962772;28;20042;-65
2022/04/04 11:45:18;;;;;;;11.02;6.90;;;6.70;58.10;;;;;;4965929;28;20421;-66
2022/04/04 11:47:53;;;;;;;10.10;6.78;;;6.70;58.30;;;;;;4970077;28;20552;-67
2022/04/04 11:50:23;;;;;;;9.07;7.15;;;6.70;57.90;;;;;;4974672;28;20034;-66
2022/04/04 11:52:57;;;;;;;10.32;6.72;;;6.60;58.50;;;;;;4963123;28;20431;-66
2022/04/04 11:55:25;;;;;;;9.73;7.35;;;6.70;59.00;;;;;;4976750;28;20065;-65
2022/04/04 11:57:57;;;;;;;10.10;7.32;;;6.80;59.00;;;;;;4978110;28;20066;-67
2022/04/04 12:00:35;;;;;;;10.05;7.35;;;6.80;59.00;;;;;;4978159;28;20572;-65
2022/04/04 12:03:27;;;;;;;10.73;7.43;;;6.80;57.40;;;;;;4979120;28;20042;-66
2022/04/04 12:05:53;;;;;;;10.23;6.85;;;6.90;58.80;;;;;;4971006;28;20027;-68
2022/04/04 12:08:21;;;;;;;10.65;6.97;;;7.00;59.00;;;;;;4980274;28;20499;-66
2022/04/04 12:10:49;;;;;;;10.43;6.55;;;7.00;58.90;;;;;;4974542;28;20035;-66
2022/04/04 12:13:21;;;;;;;8.85;6.78;;;7.10;59.20;;;;;;4981282;28;20042;-65
2022/04/04 12:15:52;;;;;;;10.70;6.72;;;7.10;58.60;;;;;;4978423;28;20484;-67
2022/04/04 12:18:26;;;;;;;11.07;7.13;;;7.30;58.10;;;;;;4979195;28;20049;-64
2022/04/04 12:20:55;;;;;;;12.40;6.82;;;7.30;58.30;;;;;;4977690;28;20034;-65
2022/04/04 12:26:13;;;;;;;8.68;6.70;;;7.40;57.30;;;;;;4977473;28;20040;-65
2022/04/04 12:28:48;;;;;;;12.93;6.82;;;7.40;57.70;;;;;;4976180;28;20086;-65
2022/04/04 12:31:16;;;;;;;9.68;7.28;;;7.40;57.90;;;;;;4977925;28;20042;-67
2022/04/04 12:33:42;;;;;;;9.50;6.93;;;7.50;57.60;;;;;;4977326;28;20038;-65
2022/04/04 12:36:08;;;;;;;8.70;7.68;;;7.50;58.10;;;;;;4976240;28;20407;-67
2022/04/04 12:38:39;;;;;;;9.18;7.22;;;7.50;57.50;;;;;;4974651;28;20411;-65
2022/04/04 12:41:08;;;;;;;8.23;6.78;;;7.60;57.00;;;;;;4976698;28;20251;-65
2022/04/04 12:43:35;;;;;;;13.13;7.40;;;7.60;57.60;;;;;;4976491;28;20552;-65
2022/04/04 12:46:01;;;;;;;9.07;7.43;;;7.60;57.20;;;;;;4976853;28;20090;-62
2022/04/04 12:48:37;;;;;;;10.98;8.02;;;7.60;58.00;;;;;;4977365;28;20433;-66
2022/04/04 12:51:04;;;;;;;10.30;8.02;;;7.60;57.10;;;;;;4976616;28;20038;-66
2022/04/04 12:53:49;;;;;;;11.20;7.70;;;7.60;57.90;;;;;;4978960;28;20042;-65
2022/04/04 12:56:15;;;;;;;8.48;6.85;;;7.70;56.70;;;;;;4975540;28;20559;-67
2022/04/04 12:58:41;;;;;;;9.18;7.63;;;7.70;57.70;;;;;;4977360;28;20039;-66
2022/04/04 13:01:12;;;;;;;12.50;7.57;;;7.70;57.50;;;;;;4977240;28;20031;-65
2022/04/04 13:03:47;;;;;;;12.05;7.05;;;7.70;57.60;;;;;;4975947;28;20030;-65